sensor_id;sensor_type;location;lat;lon;timestamp;temperature;humidity
70820;DHT22;58439;51.046;13.692;2022-08-21T00:00:22;18.50;99.90
70820;DHT22;58439;51.046;13.692;2022-08-21T00:03:02;18.50;99.90
70820;DHT22;58439;51.046;13.692;2022-08-21T00:05:36;18.50;99.90
70820;DHT22;58439;51.046;13.692;2022-08-21T00:08:05;18.50;99.90
70820;DHT22;58439;51.046;13.692;2022-08-21T00:10:33;18.50;99.90
70820;DHT22;58439;51.046;13.692;2022-08-21T00:13:03;18.50;99.90
70820;DHT22;58439;51.046;13.692;2022-08-21T00:15:33;18.30;99.90
70820;DHT22;58439;51.046;13.692;2022-08-21T00:18:03;18.20;99.90
70820;DHT22;58439;51.046;13.692;2022-08-21T00:20:33;18.10;99.90
70820;DHT22;58439;51.046;13.692;2022-08-21T00:23:01;18.10;99.90
70820;DHT22;58439;51.046;13.692;2022-08-21T00:25:28;18.10;99.90
70820;DHT22;58439;51.046;13.692;2022-08-21T00:27:56;18.00;99.90
70820;DHT22;58439;51.046;13.692;2022-08-21T00:30:25;18.00;99.90
70820;DHT22;58439;51.046;13.692;2022-08-21T00:32:54;18.00;99.90
70820;DHT22;58439;51.046;13.692;2022-08-21T00:35:28;18.00;99.90
70820;DHT22;58439;51.046;13.692;2022-08-21T00:37:58;18.00;99.90
70820;DHT22;58439;51.046;13.692;2022-08-21T00:40:30;18.10;99.90
70820;DHT22;58439;51.046;13.692;2022-08-21T00:43:06;18.10;99.90
70820;DHT22;58439;51.046;13.692;2022-08-21T00:45:36;18.10;99.90
70820;DHT22;58439;51.046;13.692;2022-08-21T00:48:04;18.10;99.90
70820;DHT22;58439;51.046;13.692;2022-08-21T00:50:34;18.10;99.90
70820;DHT22;58439;51.046;13.692;2022-08-21T00:53:06;18.10;99.90
70820;DHT22;58439;51.046;13.692;2022-08-21T00:55:36;18.10;99.90
70820;DHT22;58439;51.046;13.692;2022-08-21T00:58:11;18.10;99.90
70820;DHT22;58439;51.046;13.692;2022-08-21T01:00:55;18.10;99.90
70820;DHT22;58439;51.046;13.692;2022-08-21T01:03:23;18.10;99.90
70820;DHT22;58439;51.046;13.692;2022-08-21T01:05:52;18.10;99.90
70820;DHT22;58439;51.046;13.692;2022-08-21T01:08:21;18.10;99.90
70820;DHT22;58439;51.046;13.692;2022-08-21T01:10:51;18.10;99.90
70820;DHT22;58439;51.046;13.692;2022-08-21T01:13:25;18.20;99.90
70820;DHT22;58439;51.046;13.692;2022-08-21T01:15:57;18.20;99.90
70820;DHT22;58439;51.046;13.692;2022-08-21T01:18:27;18.20;99.90
70820;DHT22;58439;51.046;13.692;2022-08-21T01:23:34;18.10;99.90
70820;DHT22;58439;51.046;13.692;2022-08-21T01:26:04;18.10;99.90
70820;DHT22;58439;51.046;13.692;2022-08-21T01:28:36;18.10;99.90
70820;DHT22;58439;51.046;13.692;2022-08-21T01:31:08;18.00;99.90
70820;DHT22;58439;51.046;13.692;2022-08-21T01:33:39;18.00;99.90
70820;DHT22;58439;51.046;13.692;2022-08-21T01:36:07;17.90;99.90
70820;DHT22;58439;51.046;13.692;2022-08-21T01:38:34;17.80;99.90
70820;DHT22;58439;51.046;13.692;2022-08-21T01:41:01;17.70;99.90
70820;DHT22;58439;51.046;13.692;2022-08-21T01:43:28;17.70;99.90
70820;DHT22;58439;51.046;13.692;2022-08-21T01:46:05;17.60;99.90
70820;DHT22;58439;51.046;13.692;2022-08-21T01:48:36;17.50;99.90
70820;DHT22;58439;51.046;13.692;2022-08-21T01:51:18;17.50;99.90
70820;DHT22;58439;51.046;13.692;2022-08-21T01:53:55;17.50;99.90
70820;DHT22;58439;51.046;13.692;2022-08-21T01:56:28;17.50;99.90
70820;DHT22;58439;51.046;13.692;2022-08-21T01:59:09;17.50;99.90
70820;DHT22;58439;51.046;13.692;2022-08-21T02:01:40;17.50;99.90
70820;DHT22;58439;51.046;13.692;2022-08-21T02:04:18;17.50;99.90
70820;DHT22;58439;51.046;13.692;2022-08-21T02:06:49;17.40;99.90
70820;DHT22;58439;51.046;13.692;2022-08-21T02:09:25;17.50;99.90
70820;DHT22;58439;51.046;13.692;2022-08-21T02:12:00;17.40;99.90
70820;DHT22;58439;51.046;13.692;2022-08-21T02:14:36;17.40;99.90
70820;DHT22;58439;51.046;13.692;2022-08-21T02:17:17;17.50;99.90
70820;DHT22;58439;51.046;13.692;2022-08-21T02:19:46;17.50;99.90
70820;DHT22;58439;51.046;13.692;2022-08-21T02:22:24;17.50;99.90
70820;DHT22;58439;51.046;13.692;2022-08-21T02:24:56;17.50;99.90
70820;DHT22;58439;51.046;13.692;2022-08-21T02:27:24;17.50;99.90
70820;DHT22;58439;51.046;13.692;2022-08-21T02:29:56;17.50;99.90
70820;DHT22;58439;51.046;13.692;2022-08-21T02:32:25;17.50;99.90
70820;DHT22;58439;51.046;13.692;2022-08-21T02:34:52;17.50;99.90
70820;DHT22;58439;51.046;13.692;2022-08-21T02:37:20;17.50;99.90
70820;DHT22;58439;51.046;13.692;2022-08-21T02:39:47;17.50;99.90
70820;DHT22;58439;51.046;13.692;2022-08-21T02:42:15;17.50;99.90
70820;DHT22;58439;51.046;13.692;2022-08-21T02:44:47;17.50;99.90
70820;DHT22;58439;51.046;13.692;2022-08-21T02:47:14;17.50;99.90
70820;DHT22;58439;51.046;13.692;2022-08-21T02:49:41;17.50;99.90
70820;DHT22;58439;51.046;13.692;2022-08-21T02:52:10;17.50;99.90
70820;DHT22;58439;51.046;13.692;2022-08-21T02:54:38;17.60;99.90
70820;DHT22;58439;51.046;13.692;2022-08-21T02:57:05;17.60;99.90
70820;DHT22;58439;51.046;13.692;2022-08-21T02:59:32;17.60;99.90
70820;DHT22;58439;51.046;13.692;2022-08-21T03:01:59;17.60;99.90
70820;DHT22;58439;51.046;13.692;2022-08-21T03:04:26;17.60;99.90
70820;DHT22;58439;51.046;13.692;2022-08-21T03:06:53;17.60;99.90
70820;DHT22;58439;51.046;13.692;2022-08-21T03:09:20;17.60;99.90
70820;DHT22;58439;51.046;13.692;2022-08-21T03:11:47;17.60;99.90
70820;DHT22;58439;51.046;13.692;2022-08-21T03:14:15;17.60;99.90
70820;DHT22;58439;51.046;13.692;2022-08-21T03:16:42;17.60;99.90
70820;DHT22;58439;51.046;13.692;2022-08-21T03:19:09;17.60;99.90
70820;DHT22;58439;51.046;13.692;2022-08-21T03:21:36;17.70;99.90
70820;DHT22;58439;51.046;13.692;2022-08-21T03:24:09;17.60;99.90
70820;DHT22;58439;51.046;13.692;2022-08-21T03:26:40;17.60;99.90
70820;DHT22;58439;51.046;13.692;2022-08-21T03:29:07;17.60;99.90
70820;DHT22;58439;51.046;13.692;2022-08-21T03:31:34;17.60;99.90
70820;DHT22;58439;51.046;13.692;2022-08-21T03:34:01;17.60;99.90
70820;DHT22;58439;51.046;13.692;2022-08-21T03:36:31;17.50;99.90
70820;DHT22;58439;51.046;13.692;2022-08-21T03:38:58;17.60;99.90
70820;DHT22;58439;51.046;13.692;2022-08-21T03:41:25;17.60;99.90
70820;DHT22;58439;51.046;13.692;2022-08-21T03:43:52;17.60;99.90
70820;DHT22;58439;51.046;13.692;2022-08-21T03:46:20;17.60;99.90
70820;DHT22;58439;51.046;13.692;2022-08-21T03:48:47;17.60;99.90
70820;DHT22;58439;51.046;13.692;2022-08-21T03:51:15;17.60;99.90
70820;DHT22;58439;51.046;13.692;2022-08-21T03:53:42;17.60;99.90
70820;DHT22;58439;51.046;13.692;2022-08-21T03:56:11;17.60;99.90
70820;DHT22;58439;51.046;13.692;2022-08-21T03:58:45;17.60;99.90
70820;DHT22;58439;51.046;13.692;2022-08-21T04:01:23;17.60;99.90
70820;DHT22;58439;51.046;13.692;2022-08-21T04:03:51;17.60;99.90
70820;DHT22;58439;51.046;13.692;2022-08-21T04:06:23;17.60;99.90
70820;DHT22;58439;51.046;13.692;2022-08-21T04:08:55;17.50;99.90
70820;DHT22;58439;51.046;13.692;2022-08-21T04:11:23;17.50;99.90
70820;DHT22;58439;51.046;13.692;2022-08-21T04:13:50;17.50;99.90
70820;DHT22;58439;51.046;13.692;2022-08-21T04:16:18;17.50;99.90
70820;DHT22;58439;51.046;13.692;2022-08-21T04:18:46;17.50;99.90
70820;DHT22;58439;51.046;13.692;2022-08-21T04:21:13;17.50;99.90
70820;DHT22;58439;51.046;13.692;2022-08-21T04:23:41;17.60;99.90
70820;DHT22;58439;51.046;13.692;2022-08-21T04:26:08;17.60;99.90
70820;DHT22;58439;51.046;13.692;2022-08-21T04:28:35;17.70;99.90
70820;DHT22;58439;51.046;13.692;2022-08-21T04:31:02;17.70;99.90
70820;DHT22;58439;51.046;13.692;2022-08-21T04:33:29;17.70;99.90
70820;DHT22;58439;51.046;13.692;2022-08-21T04:35:57;17.70;99.90
70820;DHT22;58439;51.046;13.692;2022-08-21T04:38:24;17.80;99.90
70820;DHT22;58439;51.046;13.692;2022-08-21T04:40:51;17.80;99.90
70820;DHT22;58439;51.046;13.692;2022-08-21T04:43:19;17.80;99.90
70820;DHT22;58439;51.046;13.692;2022-08-21T04:45:48;17.80;99.90
70820;DHT22;58439;51.046;13.692;2022-08-21T04:48:22;17.80;99.90
70820;DHT22;58439;51.046;13.692;2022-08-21T04:53:54;17.90;99.90
70820;DHT22;58439;51.046;13.692;2022-08-21T04:56:37;17.90;99.90
70820;DHT22;58439;51.046;13.692;2022-08-21T04:59:15;17.90;99.90
70820;DHT22;58439;51.046;13.692;2022-08-21T05:01:47;18.00;99.90
70820;DHT22;58439;51.046;13.692;2022-08-21T05:04:18;18.00;99.90
70820;DHT22;58439;51.046;13.692;2022-08-21T05:06:50;18.00;99.90
70820;DHT22;58439;51.046;13.692;2022-08-21T05:09:21;18.00;99.90
70820;DHT22;58439;51.046;13.692;2022-08-21T05:11:51;18.00;99.90
70820;DHT22;58439;51.046;13.692;2022-08-21T05:14:20;18.10;99.90
70820;DHT22;58439;51.046;13.692;2022-08-21T05:16:48;18.20;99.90
70820;DHT22;58439;51.046;13.692;2022-08-21T05:19:15;18.30;99.90
70820;DHT22;58439;51.046;13.692;2022-08-21T05:21:44;18.40;99.90
70820;DHT22;58439;51.046;13.692;2022-08-21T05:24:15;18.40;99.90
70820;DHT22;58439;51.046;13.692;2022-08-21T05:26:42;18.50;99.90
70820;DHT22;58439;51.046;13.692;2022-08-21T05:29:13;18.50;99.90
70820;DHT22;58439;51.046;13.692;2022-08-21T05:31:42;18.60;99.90
70820;DHT22;58439;51.046;13.692;2022-08-21T05:34:11;18.60;99.90
70820;DHT22;58439;51.046;13.692;2022-08-21T05:36:42;18.70;99.90
70820;DHT22;58439;51.046;13.692;2022-08-21T05:39:10;18.70;99.90
70820;DHT22;58439;51.046;13.692;2022-08-21T05:41:37;18.80;99.90
70820;DHT22;58439;51.046;13.692;2022-08-21T05:44:04;18.80;99.90
70820;DHT22;58439;51.046;13.692;2022-08-21T05:46:35;18.80;99.90
70820;DHT22;58439;51.046;13.692;2022-08-21T05:49:03;18.80;99.90
70820;DHT22;58439;51.046;13.692;2022-08-21T05:51:30;18.80;99.90
70820;DHT22;58439;51.046;13.692;2022-08-21T05:53:57;18.80;99.90
70820;DHT22;58439;51.046;13.692;2022-08-21T05:56:25;18.90;99.90
70820;DHT22;58439;51.046;13.692;2022-08-21T05:58:52;18.90;99.90
70820;DHT22;58439;51.046;13.692;2022-08-21T06:01:19;18.90;99.90
70820;DHT22;58439;51.046;13.692;2022-08-21T06:03:46;18.90;99.90
70820;DHT22;58439;51.046;13.692;2022-08-21T06:06:13;18.90;99.90
70820;DHT22;58439;51.046;13.692;2022-08-21T06:08:40;18.90;99.90
70820;DHT22;58439;51.046;13.692;2022-08-21T06:11:08;18.90;99.90
70820;DHT22;58439;51.046;13.692;2022-08-21T06:13:36;19.00;99.90
70820;DHT22;58439;51.046;13.692;2022-08-21T06:16:13;19.00;99.90
70820;DHT22;58439;51.046;13.692;2022-08-21T06:18:43;18.90;99.90
70820;DHT22;58439;51.046;13.692;2022-08-21T06:21:18;19.00;99.90
70820;DHT22;58439;51.046;13.692;2022-08-21T06:23:55;19.00;99.90
70820;DHT22;58439;51.046;13.692;2022-08-21T06:26:29;18.90;99.90
70820;DHT22;58439;51.046;13.692;2022-08-21T06:28:56;19.00;99.90
70820;DHT22;58439;51.046;13.692;2022-08-21T06:31:25;19.00;99.90
70820;DHT22;58439;51.046;13.692;2022-08-21T06:33:54;19.00;99.90
70820;DHT22;58439;51.046;13.692;2022-08-21T06:36:21;19.00;99.90
70820;DHT22;58439;51.046;13.692;2022-08-21T06:38:49;19.00;99.90
70820;DHT22;58439;51.046;13.692;2022-08-21T06:41:18;19.00;99.90
70820;DHT22;58439;51.046;13.692;2022-08-21T06:43:49;19.10;99.90
70820;DHT22;58439;51.046;13.692;2022-08-21T06:46:17;19.10;99.90
70820;DHT22;58439;51.046;13.692;2022-08-21T06:48:44;19.20;99.90
70820;DHT22;58439;51.046;13.692;2022-08-21T06:51:11;19.30;99.90
70820;DHT22;58439;51.046;13.692;2022-08-21T06:53:39;19.40;99.90
70820;DHT22;58439;51.046;13.692;2022-08-21T06:56:06;19.40;99.90
70820;DHT22;58439;51.046;13.692;2022-08-21T06:58:33;19.40;99.90
70820;DHT22;58439;51.046;13.692;2022-08-21T07:01:00;19.50;99.90
70820;DHT22;58439;51.046;13.692;2022-08-21T07:03:28;19.60;99.90
70820;DHT22;58439;51.046;13.692;2022-08-21T07:05:58;19.60;99.90
70820;DHT22;58439;51.046;13.692;2022-08-21T07:08:25;19.60;99.90
70820;DHT22;58439;51.046;13.692;2022-08-21T07:11:11;19.70;99.90
70820;DHT22;58439;51.046;13.692;2022-08-21T07:13:53;19.90;99.90
70820;DHT22;58439;51.046;13.692;2022-08-21T07:16:28;20.00;99.90
70820;DHT22;58439;51.046;13.692;2022-08-21T07:18:59;19.90;99.90
70820;DHT22;58439;51.046;13.692;2022-08-21T07:21:26;20.00;99.90
70820;DHT22;58439;51.046;13.692;2022-08-21T07:23:53;20.10;99.90
70820;DHT22;58439;51.046;13.692;2022-08-21T07:26:21;20.10;99.90
70820;DHT22;58439;51.046;13.692;2022-08-21T07:28:50;20.10;99.90
70820;DHT22;58439;51.046;13.692;2022-08-21T07:31:19;20.10;99.90
70820;DHT22;58439;51.046;13.692;2022-08-21T07:33:48;20.10;99.90
70820;DHT22;58439;51.046;13.692;2022-08-21T07:36:15;20.20;99.90
70820;DHT22;58439;51.046;13.692;2022-08-21T07:38:42;20.10;99.90
70820;DHT22;58439;51.046;13.692;2022-08-21T07:41:14;20.20;99.90
70820;DHT22;58439;51.046;13.692;2022-08-21T07:43:43;20.30;99.90
70820;DHT22;58439;51.046;13.692;2022-08-21T07:46:12;20.30;99.90
70820;DHT22;58439;51.046;13.692;2022-08-21T07:48:48;20.30;99.90
70820;DHT22;58439;51.046;13.692;2022-08-21T07:51:16;20.20;99.90
70820;DHT22;58439;51.046;13.692;2022-08-21T07:53:48;20.10;99.90
70820;DHT22;58439;51.046;13.692;2022-08-21T07:56:17;20.00;99.90
70820;DHT22;58439;51.046;13.692;2022-08-21T07:58:44;20.00;99.90
70820;DHT22;58439;51.046;13.692;2022-08-21T08:01:12;20.00;99.90
70820;DHT22;58439;51.046;13.692;2022-08-21T08:03:43;20.00;99.90
70820;DHT22;58439;51.046;13.692;2022-08-21T08:06:11;20.10;99.90
70820;DHT22;58439;51.046;13.692;2022-08-21T08:08:39;20.20;99.90
70820;DHT22;58439;51.046;13.692;2022-08-21T08:11:08;20.20;98.80
70820;DHT22;58439;51.046;13.692;2022-08-21T08:13:38;20.20;97.90
70820;DHT22;58439;51.046;13.692;2022-08-21T08:16:07;20.10;97.10
70820;DHT22;58439;51.046;13.692;2022-08-21T08:18:34;20.10;97.10
70820;DHT22;58439;51.046;13.692;2022-08-21T08:21:05;20.10;96.30
70820;DHT22;58439;51.046;13.692;2022-08-21T08:23:32;20.10;96.30
70820;DHT22;58439;51.046;13.692;2022-08-21T08:26:00;20.20;96.10
70820;DHT22;58439;51.046;13.692;2022-08-21T08:28:31;20.20;96.00
70820;DHT22;58439;51.046;13.692;2022-08-21T08:31:02;20.30;95.80
70820;DHT22;58439;51.046;13.692;2022-08-21T08:33:30;20.50;95.70
70820;DHT22;58439;51.046;13.692;2022-08-21T08:35:57;20.60;94.40
70820;DHT22;58439;51.046;13.692;2022-08-21T08:38:28;20.70;92.80
70820;DHT22;58439;51.046;13.692;2022-08-21T08:41:00;20.90;92.50
70820;DHT22;58439;51.046;13.692;2022-08-21T08:43:33;21.00;90.90
70820;DHT22;58439;51.046;13.692;2022-08-21T08:46:03;21.10;90.40
70820;DHT22;58439;51.046;13.692;2022-08-21T08:48:39;21.10;88.20
70820;DHT22;58439;51.046;13.692;2022-08-21T08:51:21;21.20;86.90
70820;DHT22;58439;51.046;13.692;2022-08-21T08:53:58;21.20;85.50
70820;DHT22;58439;51.046;13.692;2022-08-21T08:56:31;21.20;85.40
70820;DHT22;58439;51.046;13.692;2022-08-21T08:59:02;21.20;82.60
70820;DHT22;58439;51.046;13.692;2022-08-21T09:01:35;21.20;82.00
70820;DHT22;58439;51.046;13.692;2022-08-21T09:04:04;21.30;82.50
70820;DHT22;58439;51.046;13.692;2022-08-21T09:15:16;21.50;77.80
70820;DHT22;58439;51.046;13.692;2022-08-21T09:18:00;21.60;76.80
70820;DHT22;58439;51.046;13.692;2022-08-21T09:26:19;21.80;72.80
70820;DHT22;58439;51.046;13.692;2022-08-21T09:28:51;21.70;71.60
70820;DHT22;58439;51.046;13.692;2022-08-21T09:31:28;21.80;72.00
70820;DHT22;58439;51.046;13.692;2022-08-21T09:34:02;21.90;71.10
70820;DHT22;58439;51.046;13.692;2022-08-21T09:36:46;22.00;70.10
70820;DHT22;58439;51.046;13.692;2022-08-21T09:39:25;22.10;68.70
70820;DHT22;58439;51.046;13.692;2022-08-21T09:41:58;22.20;67.80
70820;DHT22;58439;51.046;13.692;2022-08-21T09:44:29;22.20;66.90
70820;DHT22;58439;51.046;13.692;2022-08-21T09:46:59;22.20;66.20
70820;DHT22;58439;51.046;13.692;2022-08-21T09:49:31;22.30;65.80
70820;DHT22;58439;51.046;13.692;2022-08-21T09:52:00;22.30;66.20
70820;DHT22;58439;51.046;13.692;2022-08-21T09:54:33;22.40;66.20
70820;DHT22;58439;51.046;13.692;2022-08-21T09:59:55;22.40;64.80
70820;DHT22;58439;51.046;13.692;2022-08-21T10:02:35;22.50;64.00
70820;DHT22;58439;51.046;13.692;2022-08-21T10:05:07;22.50;63.80
70820;DHT22;58439;51.046;13.692;2022-08-21T10:07:42;22.60;63.90
70820;DHT22;58439;51.046;13.692;2022-08-21T10:10:21;22.70;63.90
70820;DHT22;58439;51.046;13.692;2022-08-21T10:13:16;22.70;63.50
70820;DHT22;58439;51.046;13.692;2022-08-21T10:15:51;22.70;62.20
70820;DHT22;58439;51.046;13.692;2022-08-21T10:18:39;22.70;62.60
70820;DHT22;58439;51.046;13.692;2022-08-21T10:21:22;22.70;61.20
70820;DHT22;58439;51.046;13.692;2022-08-21T10:24:14;22.70;60.40
70820;DHT22;58439;51.046;13.692;2022-08-21T10:40:36;23.00;59.30
70820;DHT22;58439;51.046;13.692;2022-08-21T10:43:10;23.10;59.80
70820;DHT22;58439;51.046;13.692;2022-08-21T10:45:57;23.20;58.20
70820;DHT22;58439;51.046;13.692;2022-08-21T10:48:47;23.20;56.80
70820;DHT22;58439;51.046;13.692;2022-08-21T10:51:33;23.20;57.20
70820;DHT22;58439;51.046;13.692;2022-08-21T10:57:19;23.30;56.40
70820;DHT22;58439;51.046;13.692;2022-08-21T11:00:09;23.40;54.90
70820;DHT22;58439;51.046;13.692;2022-08-21T11:02:44;23.30;54.30
70820;DHT22;58439;51.046;13.692;2022-08-21T11:05:28;23.30;53.80
70820;DHT22;58439;51.046;13.692;2022-08-21T11:08:04;23.30;53.40
70820;DHT22;58439;51.046;13.692;2022-08-21T11:10:39;23.30;53.20
70820;DHT22;58439;51.046;13.692;2022-08-21T11:13:38;23.50;53.40
70820;DHT22;58439;51.046;13.692;2022-08-21T11:19:21;23.80;50.70
70820;DHT22;58439;51.046;13.692;2022-08-21T11:24:40;24.10;49.90
70820;DHT22;58439;51.046;13.692;2022-08-21T11:27:25;24.20;48.60
70820;DHT22;58439;51.046;13.692;2022-08-21T11:29:56;24.30;48.20
70820;DHT22;58439;51.046;13.692;2022-08-21T11:51:48;26.70;38.20
70820;DHT22;58439;51.046;13.692;2022-08-21T11:54:27;27.10;38.30
70820;DHT22;58439;51.046;13.692;2022-08-21T11:56:56;27.30;36.00
70820;DHT22;58439;51.046;13.692;2022-08-21T11:59:39;27.40;35.40
70820;DHT22;58439;51.046;13.692;2022-08-21T12:02:12;27.70;35.30
70820;DHT22;58439;51.046;13.692;2022-08-21T12:04:45;28.00;35.00
70820;DHT22;58439;51.046;13.692;2022-08-21T12:07:28;28.30;33.70
70820;DHT22;58439;51.046;13.692;2022-08-21T12:09:59;28.50;33.60
70820;DHT22;58439;51.046;13.692;2022-08-21T12:12:32;28.90;33.30
70820;DHT22;58439;51.046;13.692;2022-08-21T12:25:58;30.80;27.90
70820;DHT22;58439;51.046;13.692;2022-08-21T12:28:45;30.80;28.20
70820;DHT22;58439;51.046;13.692;2022-08-21T12:31:20;30.90;29.00
70820;DHT22;58439;51.046;13.692;2022-08-21T12:33:59;31.70;28.70
70820;DHT22;58439;51.046;13.692;2022-08-21T12:36:53;32.60;26.60
70820;DHT22;58439;51.046;13.692;2022-08-21T12:39:25;32.90;25.40
70820;DHT22;58439;51.046;13.692;2022-08-21T12:42:05;32.90;26.40
70820;DHT22;58439;51.046;13.692;2022-08-21T12:44:45;32.80;25.10
70820;DHT22;58439;51.046;13.692;2022-08-21T12:47:25;32.20;25.70
70820;DHT22;58439;51.046;13.692;2022-08-21T12:50:00;31.30;26.50
70820;DHT22;58439;51.046;13.692;2022-08-21T12:52:35;30.70;27.60
70820;DHT22;58439;51.046;13.692;2022-08-21T12:55:10;30.30;28.10
70820;DHT22;58439;51.046;13.692;2022-08-21T12:57:39;29.80;28.60
70820;DHT22;58439;51.046;13.692;2022-08-21T13:00:09;29.30;29.50
70820;DHT22;58439;51.046;13.692;2022-08-21T13:02:43;28.80;30.00
70820;DHT22;58439;51.046;13.692;2022-08-21T13:05:27;28.20;31.10
70820;DHT22;58439;51.046;13.692;2022-08-21T13:07:57;27.80;32.60
70820;DHT22;58439;51.046;13.692;2022-08-21T13:10:26;27.60;33.10
70820;DHT22;58439;51.046;13.692;2022-08-21T13:12:57;27.50;34.00
70820;DHT22;58439;51.046;13.692;2022-08-21T13:15:31;27.50;33.80
70820;DHT22;58439;51.046;13.692;2022-08-21T13:18:01;27.30;33.80
70820;DHT22;58439;51.046;13.692;2022-08-21T13:20:31;27.40;34.70
70820;DHT22;58439;51.046;13.692;2022-08-21T13:23:16;27.40;32.80
70820;DHT22;58439;51.046;13.692;2022-08-21T13:25:50;27.40;33.10
70820;DHT22;58439;51.046;13.692;2022-08-21T13:28:17;27.50;33.50
70820;DHT22;58439;51.046;13.692;2022-08-21T13:30:48;27.90;32.90
70820;DHT22;58439;51.046;13.692;2022-08-21T13:33:18;28.30;31.90
70820;DHT22;58439;51.046;13.692;2022-08-21T13:35:58;28.70;31.20
70820;DHT22;58439;51.046;13.692;2022-08-21T13:38:31;29.10;30.60
70820;DHT22;58439;51.046;13.692;2022-08-21T13:41:02;30.30;29.70
70820;DHT22;58439;51.046;13.692;2022-08-21T13:43:33;31.60;27.80
70820;DHT22;58439;51.046;13.692;2022-08-21T13:46:06;32.10;26.50
70820;DHT22;58439;51.046;13.692;2022-08-21T13:48:36;32.10;25.90
70820;DHT22;58439;51.046;13.692;2022-08-21T13:51:04;32.10;26.10
70820;DHT22;58439;51.046;13.692;2022-08-21T13:59:23;31.70;25.40
70820;DHT22;58439;51.046;13.692;2022-08-21T14:02:01;31.80;25.60
70820;DHT22;58439;51.046;13.692;2022-08-21T14:04:52;32.60;25.00
70820;DHT22;58439;51.046;13.692;2022-08-21T14:07:31;32.80;24.30
70820;DHT22;58439;51.046;13.692;2022-08-21T14:10:06;32.30;24.40
70820;DHT22;58439;51.046;13.692;2022-08-21T14:12:47;31.50;24.30
70820;DHT22;58439;51.046;13.692;2022-08-21T14:15:17;30.50;25.50
70820;DHT22;58439;51.046;13.692;2022-08-21T14:17:51;29.80;26.10
70820;DHT22;58439;51.046;13.692;2022-08-21T14:23:25;28.70;26.80
70820;DHT22;58439;51.046;13.692;2022-08-21T14:26:03;28.10;27.90
70820;DHT22;58439;51.046;13.692;2022-08-21T14:28:40;27.70;28.70
70820;DHT22;58439;51.046;13.692;2022-08-21T14:31:11;27.70;28.50
70820;DHT22;58439;51.046;13.692;2022-08-21T14:33:48;27.60;28.60
70820;DHT22;58439;51.046;13.692;2022-08-21T14:36:16;27.60;28.90
70820;DHT22;58439;51.046;13.692;2022-08-21T14:38:47;27.50;28.30
70820;DHT22;58439;51.046;13.692;2022-08-21T14:41:20;27.50;28.80
70820;DHT22;58439;51.046;13.692;2022-08-21T14:43:54;27.30;28.40
70820;DHT22;58439;51.046;13.692;2022-08-21T14:46:35;27.30;28.50
70820;DHT22;58439;51.046;13.692;2022-08-21T14:49:22;27.20;28.50
70820;DHT22;58439;51.046;13.692;2022-08-21T14:51:51;27.30;28.40
70820;DHT22;58439;51.046;13.692;2022-08-21T14:54:26;27.30;28.10
70820;DHT22;58439;51.046;13.692;2022-08-21T14:57:01;27.20;27.70
70820;DHT22;58439;51.046;13.692;2022-08-21T14:59:31;26.90;27.70
70820;DHT22;58439;51.046;13.692;2022-08-21T15:02:00;26.60;28.60
70820;DHT22;58439;51.046;13.692;2022-08-21T15:04:28;26.60;29.10
70820;DHT22;58439;51.046;13.692;2022-08-21T15:06:55;26.80;28.20
70820;DHT22;58439;51.046;13.692;2022-08-21T15:09:22;26.80;27.90
70820;DHT22;58439;51.046;13.692;2022-08-21T15:11:51;26.80;27.70
70820;DHT22;58439;51.046;13.692;2022-08-21T15:14:20;26.80;27.70
70820;DHT22;58439;51.046;13.692;2022-08-21T15:16:49;26.80;28.00
70820;DHT22;58439;51.046;13.692;2022-08-21T15:19:17;26.90;27.90
70820;DHT22;58439;51.046;13.692;2022-08-21T15:21:44;27.00;28.00
70820;DHT22;58439;51.046;13.692;2022-08-21T15:24:11;27.00;28.00
70820;DHT22;58439;51.046;13.692;2022-08-21T15:26:39;27.30;27.80
70820;DHT22;58439;51.046;13.692;2022-08-21T15:29:06;27.80;26.90
70820;DHT22;58439;51.046;13.692;2022-08-21T15:31:35;28.20;26.00
70820;DHT22;58439;51.046;13.692;2022-08-21T15:34:03;28.30;26.00
70820;DHT22;58439;51.046;13.692;2022-08-21T15:36:30;28.50;25.80
70820;DHT22;58439;51.046;13.692;2022-08-21T15:38:56;28.70;25.60
70820;DHT22;58439;51.046;13.692;2022-08-21T15:41:24;29.00;25.40
70820;DHT22;58439;51.046;13.692;2022-08-21T15:47:14;29.20;24.10
70820;DHT22;58439;51.046;13.692;2022-08-21T15:49:44;29.00;24.60
70820;DHT22;58439;51.046;13.692;2022-08-21T15:52:12;28.90;24.90
70820;DHT22;58439;51.046;13.692;2022-08-21T15:54:40;29.00;24.70
70820;DHT22;58439;51.046;13.692;2022-08-21T15:57:09;28.90;24.80
70820;DHT22;58439;51.046;13.692;2022-08-21T15:59:39;28.60;25.10
70820;DHT22;58439;51.046;13.692;2022-08-21T16:02:15;28.20;25.70
70820;DHT22;58439;51.046;13.692;2022-08-21T16:04:45;27.70;26.30
70820;DHT22;58439;51.046;13.692;2022-08-21T16:07:12;27.20;26.90
70820;DHT22;58439;51.046;13.692;2022-08-21T16:09:40;26.70;27.40
70820;DHT22;58439;51.046;13.692;2022-08-21T16:12:07;26.30;28.50
70820;DHT22;58439;51.046;13.692;2022-08-21T16:14:37;26.00;28.90
70820;DHT22;58439;51.046;13.692;2022-08-21T16:17:05;25.70;29.40
70820;DHT22;58439;51.046;13.692;2022-08-21T16:19:33;25.40;30.00
70820;DHT22;58439;51.046;13.692;2022-08-21T16:22:01;25.10;30.50
70820;DHT22;58439;51.046;13.692;2022-08-21T16:24:28;24.80;31.20
70820;DHT22;58439;51.046;13.692;2022-08-21T16:26:56;24.60;32.10
70820;DHT22;58439;51.046;13.692;2022-08-21T16:29:26;24.40;32.80
70820;DHT22;58439;51.046;13.692;2022-08-21T16:31:59;24.40;33.60
70820;DHT22;58439;51.046;13.692;2022-08-21T16:34:26;24.60;33.70
70820;DHT22;58439;51.046;13.692;2022-08-21T16:36:54;24.80;33.20
70820;DHT22;58439;51.046;13.692;2022-08-21T16:39:21;25.00;33.00
70820;DHT22;58439;51.046;13.692;2022-08-21T16:41:48;25.10;32.80
70820;DHT22;58439;51.046;13.692;2022-08-21T16:44:18;25.00;33.00
70820;DHT22;58439;51.046;13.692;2022-08-21T16:46:47;24.80;33.80
70820;DHT22;58439;51.046;13.692;2022-08-21T16:49:15;24.50;34.70
70820;DHT22;58439;51.046;13.692;2022-08-21T16:51:42;24.20;35.80
70820;DHT22;58439;51.046;13.692;2022-08-21T16:54:10;24.00;36.10
70820;DHT22;58439;51.046;13.692;2022-08-21T16:56:37;23.80;36.50
70820;DHT22;58439;51.046;13.692;2022-08-21T16:59:07;23.60;37.00
70820;DHT22;58439;51.046;13.692;2022-08-21T17:01:37;23.40;37.50
70820;DHT22;58439;51.046;13.692;2022-08-21T17:04:04;23.30;37.90
70820;DHT22;58439;51.046;13.692;2022-08-21T17:06:31;23.10;38.50
70820;DHT22;58439;51.046;13.692;2022-08-21T17:08:58;23.10;39.00